createdAt,value
2018-05-12T00:00:06.648Z,67.40
2018-05-12T00:02:34.194Z,67.40
2018-05-12T00:05:01.687Z,67.60
2018-05-12T00:07:29.186Z,67.70
2018-05-12T00:09:56.716Z,67.60
2018-05-12T00:12:24.602Z,67.70
2018-05-12T00:14:52.555Z,67.60
2018-05-12T00:17:20.015Z,67.60
2018-05-12T00:19:47.526Z,67.60
2018-05-12T00:22:15.417Z,67.70
2018-05-12T00:24:43.014Z,67.70
2018-05-12T00:27:10.446Z,67.60
2018-05-12T00:29:38.355Z,68.30
2018-05-12T00:32:05.851Z,68.30
2018-05-12T00:34:33.374Z,67.80
2018-05-12T00:37:01.260Z,67.90
2018-05-12T00:39:28.784Z,67.90
2018-05-12T00:41:56.293Z,68.00
2018-05-12T00:44:24.178Z,67.90
2018-05-12T00:46:51.691Z,67.90
2018-05-12T00:49:19.182Z,67.80
2018-05-12T00:51:46.691Z,67.90
2018-05-12T00:54:14.584Z,68.10
2018-05-12T00:56:42.135Z,68.10
2018-05-12T00:59:10.030Z,68.70
2018-05-12T01:01:37.540Z,68.70
2018-05-12T01:04:05.031Z,68.80
2018-05-12T01:06:32.540Z,69.00
2018-05-12T01:09:00.031Z,69.00
2018-05-12T01:11:27.556Z,69.20
2018-05-12T01:13:55.053Z,69.20
2018-05-12T01:16:22.541Z,69.50
2018-05-12T01:18:50.083Z,69.50
2018-05-12T01:21:17.972Z,69.70
2018-05-12T01:23:45.879Z,69.90
2018-05-12T01:26:13.366Z,69.90
2018-05-12T01:28:40.879Z,70.30
2018-05-12T01:31:08.766Z,70.40
2018-05-12T01:33:36.680Z,70.60
2018-05-12T01:36:04.167Z,70.60
2018-05-12T01:38:31.671Z,70.70
2018-05-12T01:40:59.159Z,70.90
2018-05-12T01:43:27.063Z,71.20
2018-05-12T01:45:54.591Z,71.20
2018-05-12T01:48:22.078Z,71.30
2018-05-12T01:50:49.963Z,71.50
2018-05-12T01:53:17.862Z,71.70
2018-05-12T01:55:45.355Z,71.70
2018-05-12T01:58:12.859Z,72.00
2018-05-12T02:00:40.351Z,72.10
2018-05-12T02:03:08.255Z,72.80
2018-05-12T02:05:35.752Z,72.80
2018-05-12T02:08:03.264Z,72.80
2018-05-12T02:10:30.756Z,73.20
2018-05-12T02:12:58.255Z,73.20
2018-05-12T02:15:25.762Z,73.30
2018-05-12T02:17:53.253Z,73.40
2018-05-12T02:20:21.158Z,73.70
2018-05-12T02:22:48.675Z,73.70
2018-05-12T02:25:16.186Z,74.00
2018-05-12T02:27:44.071Z,74.40
2018-05-12T02:30:11.981Z,74.50
2018-05-12T02:32:39.505Z,74.50
2018-05-12T02:35:07.088Z,74.60
2018-05-12T02:37:34.984Z,75.10
2018-05-12T02:40:02.508Z,75.10
2018-05-12T02:42:29.999Z,75.30
2018-05-12T02:44:57.983Z,75.40
2018-05-12T02:47:25.876Z,75.80
2018-05-12T02:49:53.759Z,76.00
2018-05-12T02:52:21.280Z,76.00
2018-05-12T02:54:48.767Z,76.30
2018-05-12T02:57:16.280Z,76.30
2018-05-12T02:59:43.771Z,76.40
2018-05-12T03:02:11.291Z,76.70
2018-05-12T03:04:39.196Z,76.60
2018-05-12T03:07:07.103Z,76.70
2018-05-12T03:09:34.597Z,76.70
2018-05-12T03:12:02.107Z,76.90
2018-05-12T03:14:29.995Z,77.20
2018-05-12T03:16:57.521Z,77.20
2018-05-12T03:19:25.096Z,77.40
2018-05-12T03:21:52.939Z,77.70
2018-05-12T03:24:20.446Z,77.70
2018-05-12T03:26:47.944Z,77.70
2018-05-12T03:29:15.854Z,78.10
2018-05-12T03:31:43.351Z,78.10
2018-05-12T03:34:10.886Z,78.10
2018-05-12T03:36:38.451Z,78.20
2018-05-12T03:39:06.355Z,78.00
2018-05-12T03:41:33.863Z,78.00
2018-05-12T03:44:01.375Z,78.00
2018-05-12T03:46:29.267Z,77.90
2018-05-12T03:48:56.775Z,77.90
2018-05-12T03:51:24.276Z,78.10
2018-05-12T03:53:51.783Z,78.20
2018-05-12T03:56:19.275Z,78.20
2018-05-12T03:58:46.792Z,78.40
2018-05-12T04:01:14.292Z,78.60
2018-05-12T04:03:41.787Z,78.60
2018-05-12T04:06:21.231Z,78.60
2018-05-12T04:09:00.511Z,78.50
2018-05-12T04:11:39.919Z,78.70
2018-05-12T04:14:07.439Z,78.90
2018-05-12T04:16:34.931Z,78.70
2018-05-12T04:19:02.421Z,78.80
2018-05-12T04:21:29.926Z,78.80
2018-05-12T04:23:57.452Z,78.60
2018-05-12T04:26:24.979Z,78.80
2018-05-12T04:28:52.472Z,78.50
2018-05-12T04:31:19.987Z,78.60
2018-05-12T04:33:47.483Z,78.60
2018-05-12T04:36:14.995Z,78.60
2018-05-12T04:38:42.488Z,78.50
2018-05-12T04:41:10.400Z,78.40
2018-05-12T04:43:37.888Z,78.40
2018-05-12T04:46:05.395Z,78.20
2018-05-12T04:48:33.283Z,78.10
2018-05-12T04:51:01.199Z,78.20
2018-05-12T04:53:28.696Z,78.20
2018-05-12T04:55:56.208Z,78.00
2018-05-12T04:58:24.111Z,78.30
2018-05-12T05:00:51.603Z,78.30
2018-05-12T05:03:19.108Z,77.90
2018-05-12T05:05:46.640Z,77.80
2018-05-12T05:08:14.211Z,77.70
2018-05-12T05:10:41.677Z,77.60
2018-05-12T05:13:09.179Z,77.90
2018-05-12T05:15:36.667Z,78.10
2018-05-12T05:18:04.175Z,78.50
2018-05-12T05:20:31.670Z,78.00
2018-05-12T05:22:59.188Z,77.90
2018-05-12T05:25:27.084Z,77.40
2018-05-12T05:27:54.991Z,77.60
2018-05-12T05:30:22.489Z,77.60
2018-05-12T05:32:50.019Z,77.30
2018-05-12T05:35:17.603Z,77.20
2018-05-12T05:37:45.056Z,77.10
2018-05-12T05:40:12.559Z,76.60
2018-05-12T05:42:40.062Z,75.90
2018-05-12T05:45:07.555Z,75.80
2018-05-12T05:47:35.462Z,75.90
2018-05-12T05:50:02.955Z,75.90
2018-05-12T05:52:30.459Z,75.40
2018-05-12T05:54:57.954Z,75.00
2018-05-12T05:57:25.883Z,73.50
2018-05-12T05:59:53.370Z,73.50
2018-05-12T06:02:20.989Z,72.70
2018-05-12T06:04:48.515Z,71.90
2018-05-12T06:07:16.035Z,71.90
2018-05-12T06:09:43.586Z,71.20
2018-05-12T06:12:11.503Z,70.60
2018-05-12T06:14:39.007Z,70.60
2018-05-12T06:17:06.517Z,69.70
2018-05-12T06:19:34.420Z,69.00
2018-05-12T06:22:01.924Z,69.00
2018-05-12T06:24:29.435Z,68.90
2018-05-12T06:26:57.323Z,67.70
2018-05-12T06:29:25.230Z,67.80
2018-05-12T06:31:52.718Z,67.80
2018-05-12T06:34:20.223Z,67.70
2018-05-12T06:36:47.715Z,66.60
2018-05-12T06:39:15.611Z,65.90
2018-05-12T06:41:43.103Z,65.80
2018-05-12T06:44:10.629Z,65.40
2018-05-12T06:46:38.516Z,64.20
2018-05-12T06:49:06.417Z,63.80
2018-05-12T06:51:33.907Z,63.80
2018-05-12T06:54:01.406Z,64.50
2018-05-12T06:56:28.897Z,65.30
2018-05-12T06:58:56.805Z,64.90
2018-05-12T07:01:24.382Z,64.90
2018-05-12T07:03:51.863Z,64.00
2018-05-12T07:06:19.395Z,63.20
2018-05-12T07:08:47.302Z,61.70
2018-05-12T07:11:14.791Z,61.70
2018-05-12T07:13:42.299Z,61.80
2018-05-12T07:16:09.792Z,61.60
2018-05-12T07:18:37.771Z,60.60
2018-05-12T07:21:05.663Z,60.70
2018-05-12T07:23:33.571Z,60.70
2018-05-12T07:26:01.099Z,60.70
2018-05-12T07:28:29.494Z,60.10
2018-05-12T07:30:57.496Z,60.20
2018-05-12T07:33:25.085Z,60.20
2018-05-12T07:35:52.620Z,58.50
2018-05-12T07:38:20.525Z,59.40
2018-05-12T07:40:48.121Z,59.30
2018-05-12T07:43:15.635Z,57.90
2018-05-12T07:45:43.215Z,58.90
2018-05-12T07:48:11.098Z,56.70
2018-05-12T07:50:39.004Z,56.10
2018-05-12T07:53:06.492Z,56.10
2018-05-12T07:55:34.031Z,56.20
2018-05-12T07:58:01.920Z,54.20
2018-05-12T08:00:29.431Z,54.20
2018-05-12T08:02:56.915Z,55.20
2018-05-12T08:05:24.414Z,56.00
2018-05-12T08:07:52.304Z,54.10
2018-05-12T08:10:20.212Z,55.90
2018-05-12T08:12:47.817Z,55.80
2018-05-12T08:15:15.236Z,54.80
2018-05-12T08:17:42.719Z,53.40
2018-05-12T08:20:10.219Z,54.90
2018-05-12T08:22:37.699Z,54.60
2018-05-12T08:25:05.203Z,54.00
2018-05-12T08:27:32.726Z,52.00
2018-05-12T08:30:00.227Z,51.60
2018-05-12T08:32:27.711Z,51.00
2018-05-12T08:34:55.608Z,50.00
2018-05-12T08:37:23.093Z,50.10
2018-05-12T08:39:50.599Z,51.40
2018-05-12T08:42:18.082Z,49.30
2018-05-12T08:44:45.583Z,47.50
2018-05-12T08:47:13.464Z,49.00
2018-05-12T08:49:41.363Z,48.60
2018-05-12T08:52:08.851Z,48.60
2018-05-12T08:54:37.200Z,47.90
2018-05-12T08:57:05.093Z,46.40
2018-05-12T08:59:32.604Z,46.40
2018-05-12T09:02:00.092Z,46.90
2018-05-12T09:04:27.598Z,45.70
2018-05-12T09:06:55.479Z,47.80
2018-05-12T09:09:23.359Z,46.60
2018-05-12T09:11:51.255Z,45.30
2018-05-12T09:14:18.740Z,45.30
2018-05-12T09:16:46.255Z,45.30
2018-05-12T09:19:13.788Z,44.10
2018-05-12T09:21:41.283Z,44.60
2018-05-12T09:24:08.769Z,44.70
2018-05-12T09:26:36.275Z,45.70
2018-05-12T09:29:03.770Z,46.10
2018-05-12T09:31:31.279Z,46.90
2018-05-12T09:33:58.772Z,45.20
2018-05-12T09:36:26.671Z,46.60
2018-05-12T09:38:54.164Z,46.60
2018-05-12T09:41:21.666Z,46.90
2018-05-12T09:43:49.153Z,46.30
2018-05-12T09:46:16.665Z,46.60
2018-05-12T09:48:44.151Z,46.40
2018-05-12T09:51:11.664Z,45.50
2018-05-12T09:53:39.579Z,45.90
2018-05-12T09:56:07.079Z,45.80
2018-05-12T09:58:34.564Z,45.60
2018-05-12T10:01:02.075Z,45.50
2018-05-12T10:03:30.019Z,45.50
2018-05-12T10:05:57.503Z,45.50
2018-05-12T10:08:25.011Z,45.10
2018-05-12T10:10:52.524Z,44.70
2018-05-12T10:13:20.012Z,45.20
2018-05-12T10:15:47.929Z,45.60
2018-05-12T10:18:15.420Z,45.60
2018-05-12T10:20:42.943Z,44.60
2018-05-12T10:23:10.841Z,45.20
2018-05-12T10:25:38.745Z,45.50
2018-05-12T10:28:06.283Z,45.50
2018-05-12T10:30:34.248Z,45.80
2018-05-12T10:33:01.736Z,45.80
2018-05-12T10:35:29.333Z,44.80
2018-05-12T10:37:56.840Z,45.80
2018-05-12T10:40:24.324Z,45.20
2018-05-12T10:42:51.919Z,45.60
2018-05-12T10:45:19.627Z,46.20
2018-05-12T10:47:47.131Z,45.80
2018-05-12T10:50:14.615Z,46.00
2018-05-12T10:52:42.171Z,46.90
2018-05-12T10:55:09.685Z,45.80
2018-05-12T10:57:37.584Z,47.10
2018-05-12T11:00:05.068Z,47.10
2018-05-12T11:02:32.571Z,47.30
2018-05-12T11:05:00.059Z,48.00
2018-05-12T11:07:27.564Z,48.10
2018-05-12T11:09:55.122Z,47.90
2018-05-12T11:12:23.052Z,47.30
2018-05-12T11:14:50.570Z,47.20
2018-05-12T11:17:18.469Z,47.50
2018-05-12T11:19:45.968Z,47.40
2018-05-12T11:22:13.473Z,47.00
2018-05-12T11:24:40.968Z,45.80
2018-05-12T11:27:08.866Z,46.40
2018-05-12T11:29:36.363Z,46.30
2018-05-12T11:32:03.880Z,45.60
2018-05-12T11:34:31.376Z,46.30
2018-05-12T11:36:58.879Z,46.60
2018-05-12T11:39:26.367Z,45.60
2018-05-12T11:41:53.899Z,45.80
2018-05-12T11:44:21.414Z,44.80
2018-05-12T11:46:49.136Z,46.20
2018-05-12T11:49:16.629Z,45.20
2018-05-12T11:51:44.219Z,44.80
2018-05-12T11:54:11.731Z,44.90
2018-05-12T11:56:39.278Z,44.20
2018-05-12T11:59:06.774Z,44.50
2018-05-12T12:01:34.695Z,44.90
2018-05-12T12:04:03.993Z,43.90
2018-05-12T12:06:32.773Z,43.90
2018-05-12T12:09:02.132Z,44.60
2018-05-12T12:11:31.049Z,45.10
2018-05-12T12:13:58.728Z,45.50
2018-05-12T12:16:26.219Z,44.80
2018-05-12T12:18:53.727Z,44.20
2018-05-12T12:21:21.280Z,44.40
2018-05-12T12:23:49.200Z,44.70
2018-05-12T12:26:16.683Z,44.70
2018-05-12T12:28:44.186Z,45.60
2018-05-12T12:31:11.671Z,45.20
2018-05-12T12:33:39.574Z,44.40
2018-05-12T12:36:07.071Z,44.40
2018-05-12T12:38:35.312Z,44.70
2018-05-12T12:41:03.195Z,45.30
2018-05-12T12:43:31.096Z,46.30
2018-05-12T12:45:58.591Z,46.30
2018-05-12T12:48:26.208Z,45.10
2018-05-12T12:50:54.406Z,44.30
2018-05-12T12:53:22.079Z,45.10
2018-05-12T12:55:49.959Z,45.90
2018-05-12T12:58:17.941Z,45.80
2018-05-12T13:00:46.103Z,45.80
2018-05-12T13:03:13.903Z,45.60
2018-05-12T13:05:41.922Z,46.30
2018-05-12T13:08:09.487Z,46.30
2018-05-12T13:10:37.031Z,45.90
2018-05-12T13:13:04.966Z,45.80
2018-05-12T13:15:32.488Z,45.80
2018-05-12T13:18:00.389Z,46.00
2018-05-12T13:20:27.876Z,46.00
2018-05-12T13:22:55.386Z,46.50
2018-05-12T13:25:23.404Z,46.20
2018-05-12T13:27:50.954Z,46.10
2018-05-12T13:30:18.860Z,46.00
2018-05-12T13:32:46.927Z,44.30
2018-05-12T13:35:14.806Z,44.40
2018-05-12T13:37:42.706Z,44.30
2018-05-12T13:40:10.222Z,44.30
2018-05-12T13:42:37.715Z,45.20
2018-05-12T13:45:05.783Z,45.70
2018-05-12T13:47:33.738Z,44.80
2018-05-12T13:50:01.624Z,44.70
2018-05-12T13:52:29.143Z,45.10
2018-05-12T13:54:57.041Z,45.00
2018-05-12T13:57:24.531Z,44.90
2018-05-12T13:59:52.042Z,45.20
2018-05-12T14:02:19.539Z,45.20
2018-05-12T14:04:47.435Z,44.60
2018-05-12T14:07:15.029Z,44.60
2018-05-12T14:09:44.373Z,45.00
2018-05-12T14:12:12.296Z,45.40
2018-05-12T14:14:40.194Z,45.10
2018-05-12T14:17:07.684Z,45.10
2018-05-12T14:19:35.411Z,44.70
2018-05-12T14:22:04.250Z,43.90
2018-05-12T14:24:31.891Z,43.90
2018-05-12T14:26:59.780Z,44.00
2018-05-12T14:29:27.683Z,43.70
2018-05-12T14:31:55.788Z,43.70
2018-05-12T14:34:24.262Z,43.50
2018-05-12T14:36:52.958Z,42.60
2018-05-12T14:39:20.519Z,42.60
2018-05-12T14:41:48.020Z,42.50
2018-05-12T14:44:15.734Z,42.90
2018-05-12T14:46:43.731Z,42.60
2018-05-12T14:49:11.628Z,43.00
2018-05-12T14:51:39.111Z,43.00
2018-05-12T14:54:06.647Z,43.40
2018-05-12T14:56:34.527Z,44.20
2018-05-12T14:59:02.428Z,43.00
2018-05-12T15:01:29.916Z,43.00
2018-05-12T15:03:57.427Z,43.10
2018-05-12T15:06:24.929Z,43.70
2018-05-12T15:08:52.430Z,44.50
2018-05-12T15:11:19.952Z,44.40
2018-05-12T15:13:47.443Z,44.60
2018-05-12T15:16:15.339Z,44.00
2018-05-12T15:21:45.812Z,44.40
2018-05-12T15:24:13.349Z,44.50
2018-05-12T15:26:40.926Z,44.90
2018-05-12T15:29:08.494Z,44.40
2018-05-12T15:31:35.989Z,45.30
2018-05-12T15:34:03.866Z,45.60
2018-05-12T15:36:31.752Z,45.20
2018-05-12T15:38:59.250Z,45.20
2018-05-12T15:41:26.742Z,45.80
2018-05-12T15:43:54.268Z,45.60
2018-05-12T15:46:22.150Z,45.90
2018-05-12T15:48:49.705Z,45.90
2018-05-12T15:51:17.214Z,46.20
2018-05-12T15:53:44.730Z,45.90
2018-05-12T15:56:12.225Z,45.70
2018-05-12T15:58:40.098Z,46.70
2018-05-12T16:01:08.070Z,46.50
2018-05-12T16:03:35.550Z,46.50
2018-05-12T16:06:03.525Z,45.80
2018-05-12T16:08:31.023Z,45.80
2018-05-12T16:10:58.562Z,46.90
2018-05-12T16:13:26.038Z,47.80
2018-05-12T16:15:53.539Z,47.50
2018-05-12T16:18:21.417Z,46.70
2018-05-12T16:20:48.915Z,46.90
2018-05-12T16:23:16.393Z,47.90
2018-05-12T16:25:43.920Z,47.40
2018-05-12T16:28:11.774Z,47.40
2018-05-12T16:30:39.269Z,47.40
2018-05-12T16:33:07.225Z,47.30
2018-05-12T16:35:34.720Z,47.30
2018-05-12T16:38:02.594Z,48.00
2018-05-12T16:40:30.490Z,49.20
2018-05-12T16:42:57.968Z,49.20
2018-05-12T16:45:25.502Z,49.10
2018-05-12T16:47:53.073Z,48.90
2018-05-12T16:50:20.583Z,49.40
2018-05-12T16:52:48.069Z,49.30
2018-05-12T16:55:15.550Z,49.30
2018-05-12T16:57:43.047Z,49.20
2018-05-12T17:00:10.525Z,48.80
2018-05-12T17:02:38.106Z,49.50
2018-05-12T17:05:05.582Z,49.70
2018-05-12T17:07:33.476Z,50.10
2018-05-12T17:10:01.360Z,50.50
2018-05-12T17:12:28.987Z,50.50
2018-05-12T17:14:56.787Z,50.30
2018-05-12T17:17:24.689Z,50.60
2018-05-12T17:19:52.165Z,50.60
2018-05-12T17:22:19.657Z,50.30
2018-05-12T17:24:47.134Z,50.30
2018-05-12T17:27:14.629Z,50.40
2018-05-12T17:29:42.106Z,51.00
2018-05-12T17:32:09.601Z,50.90
2018-05-12T17:34:37.491Z,50.90
2018-05-12T17:37:05.069Z,50.90
2018-05-12T17:39:32.545Z,51.90
2018-05-12T17:42:00.045Z,51.70
2018-05-12T17:44:27.528Z,52.10
2018-05-12T17:46:55.022Z,52.30
2018-05-12T17:49:22.497Z,51.70
2018-05-12T17:51:50.385Z,51.70
2018-05-12T17:54:18.354Z,52.20
2018-05-12T17:56:45.851Z,52.30
2018-05-12T17:59:13.343Z,52.40
2018-05-12T18:01:40.862Z,52.90
2018-05-12T18:04:08.343Z,52.80
2018-05-12T18:06:36.237Z,53.60
2018-05-12T18:09:04.108Z,54.20
2018-05-12T18:11:32.084Z,55.40
2018-05-12T18:13:59.554Z,55.40
2018-05-12T18:16:27.451Z,55.50
2018-05-12T18:18:55.330Z,55.10
2018-05-12T18:21:23.200Z,55.20
2018-05-12T18:23:51.092Z,55.40
2018-05-12T18:26:18.652Z,55.40
2018-05-12T18:28:46.549Z,56.40
2018-05-12T18:31:14.027Z,56.40
2018-05-12T18:33:41.518Z,56.30
2018-05-12T18:36:08.993Z,56.30
2018-05-12T18:38:36.566Z,57.60
2018-05-12T18:41:03.985Z,57.70
2018-05-12T18:43:31.876Z,58.10
2018-05-12T18:45:59.360Z,58.10
2018-05-12T18:48:26.862Z,58.80
2018-05-12T18:50:54.338Z,59.10
2018-05-12T18:53:21.864Z,59.70
2018-05-12T18:55:49.406Z,59.80
2018-05-12T18:58:17.306Z,59.50
2018-05-12T19:00:45.224Z,59.40
2018-05-12T19:03:12.736Z,59.40
2018-05-12T19:05:40.218Z,60.00
2018-05-12T19:08:07.713Z,60.90
2018-05-12T19:10:35.190Z,61.10
2018-05-12T19:13:02.686Z,61.90
2018-05-12T19:15:30.252Z,61.60
2018-05-12T19:17:57.674Z,61.80
2018-05-12T19:20:25.554Z,62.30
2018-05-12T19:22:53.441Z,62.60
2018-05-12T19:25:21.463Z,62.60
2018-05-12T19:27:48.969Z,62.60
2018-05-12T19:30:16.449Z,62.70
2018-05-12T19:32:44.431Z,62.80
2018-05-12T19:35:12.313Z,62.90
2018-05-12T19:37:40.214Z,62.80
2018-05-12T19:40:07.690Z,62.80
2018-05-12T19:42:35.210Z,63.00
2018-05-12T19:45:02.693Z,63.60
2018-05-12T19:47:30.174Z,63.60
2018-05-12T19:49:58.062Z,63.80
2018-05-12T19:52:25.933Z,63.00
2018-05-12T19:54:53.909Z,64.00
2018-05-12T19:57:21.387Z,64.00
2018-05-12T19:59:49.282Z,64.20
2018-05-12T20:02:17.236Z,64.60
2018-05-12T20:04:44.821Z,64.60
2018-05-12T20:09:47.012Z,64.90
2018-05-12T20:12:14.445Z,65.00
2018-05-12T20:14:41.967Z,64.50
2018-05-12T20:17:09.454Z,63.60
2018-05-12T20:19:37.374Z,63.40
2018-05-12T20:22:04.885Z,63.40
2018-05-12T20:24:32.378Z,64.80
2018-05-12T20:26:59.877Z,65.00
2018-05-12T20:29:27.375Z,65.10
2018-05-12T20:31:54.853Z,65.30
2018-05-12T20:34:22.377Z,63.90
2018-05-12T20:36:49.861Z,63.50
2018-05-12T20:39:17.361Z,63.20
2018-05-12T20:41:44.842Z,64.00
2018-05-12T20:44:12.333Z,63.70
2018-05-12T20:46:40.200Z,63.10
2018-05-12T20:49:07.695Z,63.10
2018-05-12T20:51:35.561Z,62.90
2018-05-12T20:54:03.453Z,62.90
2018-05-12T20:56:31.334Z,62.50
2018-05-12T20:58:59.225Z,62.50
2018-05-12T21:01:26.697Z,62.50
2018-05-12T21:03:54.195Z,62.30
2018-05-12T21:06:21.673Z,62.30
2018-05-12T21:08:49.174Z,62.10
2018-05-12T21:11:16.657Z,61.70
2018-05-12T21:13:44.533Z,61.30
2018-05-12T21:16:12.506Z,61.20
2018-05-12T21:18:39.981Z,61.20
2018-05-12T21:21:07.549Z,61.40
2018-05-12T21:23:35.102Z,61.70
2018-05-12T21:26:02.541Z,61.40
2018-05-12T21:28:30.019Z,61.30
2018-05-12T21:30:57.520Z,60.90
2018-05-12T21:33:24.993Z,60.80
2018-05-12T21:35:52.486Z,61.30
2018-05-12T21:38:20.357Z,61.00
2018-05-12T21:40:47.854Z,61.10
2018-05-12T21:43:15.337Z,60.70
2018-05-12T21:45:42.847Z,60.60
2018-05-12T21:48:10.322Z,60.70
2018-05-12T21:50:37.801Z,60.40
2018-05-12T21:53:05.305Z,61.00
2018-05-12T21:55:32.785Z,60.80
2018-05-12T21:58:00.277Z,61.40
2018-05-12T22:00:27.764Z,61.30
2018-05-12T22:02:55.358Z,61.10
2018-05-12T22:05:22.842Z,61.50
2018-05-12T22:07:50.828Z,61.10
2018-05-12T22:10:18.281Z,61.10
2018-05-12T22:12:46.241Z,60.70
2018-05-12T22:15:13.720Z,60.70
2018-05-12T22:17:41.213Z,60.60
2018-05-12T22:20:09.085Z,60.50
2018-05-12T22:22:36.578Z,60.50
2018-05-12T22:25:04.449Z,60.70
2018-05-12T22:27:32.341Z,61.30
2018-05-12T22:29:59.814Z,61.30
2018-05-12T22:32:27.305Z,61.50
2018-05-12T22:34:54.782Z,61.00
2018-05-12T22:37:22.273Z,61.30
2018-05-12T22:39:49.745Z,61.10
2018-05-12T22:42:17.238Z,61.20
2018-05-12T22:44:44.723Z,60.90
2018-05-12T22:47:12.619Z,61.00
2018-05-12T22:49:40.117Z,61.00
2018-05-12T22:52:07.613Z,61.00
2018-05-12T22:54:35.101Z,61.20
2018-05-12T22:57:02.674Z,61.10
2018-05-12T22:59:30.545Z,61.20
2018-05-12T23:01:58.051Z,61.20
2018-05-12T23:04:25.584Z,61.20
2018-05-12T23:06:53.048Z,61.30
2018-05-12T23:09:20.539Z,61.30
2018-05-12T23:11:48.018Z,61.30
2018-05-12T23:14:15.510Z,61.40
2018-05-12T23:16:42.989Z,61.40
2018-05-12T23:19:10.517Z,61.50
2018-05-12T23:21:38.006Z,61.50
2018-05-12T23:24:05.895Z,61.60
2018-05-12T23:26:33.371Z,61.60
2018-05-12T23:29:00.861Z,61.60
2018-05-12T23:31:28.382Z,61.80
2018-05-12T23:33:55.909Z,61.90
2018-05-12T23:36:23.386Z,62.00
2018-05-12T23:38:50.889Z,62.20
2018-05-12T23:41:18.369Z,62.30
2018-05-12T23:43:45.863Z,62.40
2018-05-12T23:46:13.345Z,62.60
2018-05-12T23:48:40.841Z,62.80
2018-05-12T23:51:08.323Z,63.00
2018-05-12T23:53:35.825Z,63.20
2018-05-12T23:56:03.698Z,63.70
2018-05-12T23:58:31.198Z,63.70
